Time;durP1;ratioP1;P1;durP2;ratioP2;P2;SDS_P1;SDS_P2;PMS_P1;PMS_P2;Temp;Humidity;BMP_temperature;BMP_pressure;BME280_temperature;BME280_humidity;BME280_pressure;Samples;Min_cycle;Max_cycle;Signal;HPM_P1;HPM_P2
2023/06/20 00:02:08;;;;;;;7.45;4.45;;;;;;;21.35;69.12;95955.84;5091013;28;20052;-74
2023/06/20 00:04:34;;;;;;;6.40;3.85;;;;;;;21.42;69.38;95950.31;5091976;28;20048;-73
2023/06/20 00:07:01;;;;;;;4.47;3.63;;;;;;;21.34;70.38;95948.72;5091504;28;20044;-73
2023/06/20 00:09:29;;;;;;;5.38;3.78;;;;;;;21.24;71.55;95955.03;5090856;28;20404;-73
2023/06/20 00:11:55;;;;;;;4.72;3.63;;;;;;;21.19;72.02;95947.13;5091690;28;20097;-73
2023/06/20 00:14:22;;;;;;;5.90;4.60;;;;;;;21.07;72.93;95951.88;5090718;28;20055;-73
2023/06/20 00:16:48;;;;;;;4.72;3.80;;;;;;;20.92;73.92;95955.06;5091364;28;20691;-73
2023/06/20 00:19:15;;;;;;;4.28;3.42;;;;;;;21.02;73.24;95949.50;5089080;28;20408;-73
2023/06/20 00:21:42;;;;;;;4.40;3.45;;;;;;;21.11;73.56;95941.63;5090937;28;20040;-73
2023/06/20 00:24:09;;;;;;;6.82;3.80;;;;;;;21.17;73.31;95949.53;5090167;28;20048;-74
2023/06/20 00:26:37;;;;;;;5.30;3.75;;;;;;;21.17;73.13;95950.31;5091420;28;20036;-73
2023/06/20 00:29:05;;;;;;;4.07;3.55;;;;;;;21.18;72.75;95962.97;5090021;28;20132;-73
2023/06/20 00:31:31;;;;;;;4.60;3.75;;;;;;;21.18;72.85;95976.00;5109589;28;20056;-73
2023/06/20 00:33:58;;;;;;;5.22;3.60;;;;;;;21.15;72.71;95990.66;5111368;27;20039;-73
2023/06/20 00:36:26;;;;;;;6.35;3.95;;;;;;;20.98;73.45;95992.22;5110876;28;20051;-73
2023/06/20 00:38:52;;;;;;;7.28;4.68;;;;;;;20.59;73.28;95998.50;5101223;28;20135;-73
2023/06/20 00:41:20;;;;;;;5.70;3.95;;;;;;;20.45;74.06;95999.19;5090564;28;20044;-73
2023/06/20 00:43:48;;;;;;;5.30;3.90;;;;;;;20.50;73.74;95985.03;5091126;28;20047;-73
2023/06/20 00:46:17;;;;;;;4.35;3.33;;;;;;;20.58;73.99;96007.97;5090082;28;20124;-73
2023/06/20 00:48:44;;;;;;;5.30;4.20;;;;;;;20.32;74.74;96020.13;5103359;27;20498;-73
2023/06/20 00:51:11;;;;;;;4.80;4.20;;;;;;;20.11;75.03;96008.97;5110570;28;20048;-74
2023/06/20 00:53:37;;;;;;;8.43;4.20;;;;;;;20.16;74.59;96014.13;5110892;28;20039;-73
2023/06/20 00:56:04;;;;;;;7.65;4.15;;;;;;;19.89;75.26;96010.81;5096966;28;20044;-74
2023/06/20 00:58:31;;;;;;;6.28;4.15;;;;;;;20.05;74.46;96009.34;5090140;28;20051;-73
2023/06/20 01:00:59;;;;;;;8.13;4.38;;;;;;;20.07;74.69;96018.03;5090348;28;20040;-73
2023/06/20 01:03:25;;;;;;;5.40;4.45;;;;;;;20.09;74.80;96020.41;5089883;28;20044;-73
2023/06/20 01:06:03;;;;;;;6.13;4.25;;;;;;;20.04;74.68;96002.19;5090245;28;20053;-73
2023/06/20 01:08:37;;;;;;;5.45;4.53;;;;;;;20.05;74.27;96006.56;5089448;28;20437;-73
2023/06/20 01:11:11;;;;;;;5.25;4.20;;;;;;;20.03;74.62;96006.16;5090248;28;20040;-74
2023/06/20 01:13:47;;;;;;;8.32;4.82;;;;;;;20.00;75.08;96004.19;5090226;28;20066;-73
2023/06/20 01:16:23;;;;;;;5.20;4.47;;;;;;;19.96;75.30;96010.88;5089794;28;20462;-74
2023/06/20 01:19:00;;;;;;;5.03;4.18;;;;;;;20.04;74.78;96002.19;5089299;28;20037;-73
2023/06/20 01:21:34;;;;;;;5.45;4.45;;;;;;;20.03;75.22;95995.09;5088202;28;20044;-73
2023/06/20 01:24:09;;;;;;;5.03;4.05;;;;;;;20.05;75.33;96012.09;5091914;28;20040;-73
2023/06/20 01:26:40;;;;;;;7.10;4.72;;;;;;;20.03;75.17;96006.16;5090933;28;20036;-73
2023/06/20 01:29:16;;;;;;;5.57;4.05;;;;;;;20.02;75.33;96010.09;5089388;28;20040;-73
2023/06/20 01:31:50;;;;;;;4.88;4.03;;;;;;;20.02;75.42;96004.56;5090617;28;20407;-73
2023/06/20 01:34:21;;;;;;;5.30;4.32;;;;;;;20.02;75.59;96003.78;5089930;28;20048;-73
2023/06/20 01:36:52;;;;;;;6.25;4.13;;;;;;;20.04;75.38;95999.44;5090773;28;20051;-73
2023/06/20 01:39:24;;;;;;;5.75;4.32;;;;;;;20.04;75.76;96002.19;5088837;28;20514;-73
2023/06/20 01:41:52;;;;;;;5.97;4.18;;;;;;;19.98;75.90;96001.00;5089982;28;20036;-73
2023/06/20 01:44:20;;;;;;;5.32;4.40;;;;;;;20.02;75.93;96001.81;5107823;27;20065;-73
2023/06/20 01:46:50;;;;;;;6.97;3.95;;;;;;;20.03;75.84;96011.69;5094275;28;20028;-73
2023/06/20 01:49:17;;;;;;;5.75;4.45;;;;;;;19.95;75.85;96004.56;5091913;28;20058;-73
2023/06/20 01:51:45;;;;;;;4.90;4.07;;;;;;;19.98;76.41;96001.00;5094328;28;20054;-73
2023/06/20 01:54:12;;;;;;;6.20;4.72;;;;;;;19.86;76.55;96001.34;5095419;28;20040;-73
2023/06/20 01:56:42;;;;;;;5.20;4.18;;;;;;;19.78;76.92;95994.19;5094036;28;20040;-73
2023/06/20 01:59:10;;;;;;;6.35;4.53;;;;;;;19.85;76.69;95991.47;5093797;28;20175;-73
2023/06/20 02:01:42;;;;;;;5.25;3.88;;;;;;;19.91;76.97;95992.69;5094630;28;20067;-73
2023/06/20 02:04:09;;;;;;;5.60;3.88;;;;;;;19.98;77.24;95991.91;5094002;28;20455;-73
2023/06/20 02:06:38;;;;;;;6.10;4.40;;;;;;;20.01;76.86;95996.69;5094103;28;20047;-73
2023/06/20 02:09:05;;;;;;;6.05;4.20;;;;;;;20.01;76.47;96003.00;5099056;28;20077;-74
2023/06/20 02:11:32;;;;;;;6.20;4.55;;;;;;;20.03;76.73;95997.06;5102754;28;20044;-73
2023/06/20 02:14:01;;;;;;;5.70;4.20;;;;;;;19.92;76.89;95999.00;5093363;28;20047;-73
2023/06/20 02:16:29;;;;;;;6.82;4.15;;;;;;;19.95;76.89;95998.25;5093287;28;20040;-73
2023/06/20 02:18:56;;;;;;;6.82;4.00;;;;;;;20.00;76.93;96004.19;5092173;28;20100;-73
2023/06/20 02:21:26;;;;;;;7.03;4.13;;;;;;;20.03;76.85;96016.41;5089456;28;20060;-73
2023/06/20 02:23:54;;;;;;;5.20;4.30;;;;;;;20.07;76.78;96023.56;5089832;28;20039;-73
2023/06/20 02:26:26;;;;;;;4.35;3.85;;;;;;;20.07;76.58;96031.84;5088661;28;20059;-73
2023/06/20 02:28:58;;;;;;;7.15;5.28;;;;;;;19.93;76.80;96037.28;5089079;28;20036;-73
2023/06/20 02:31:29;;;;;;;7.03;4.53;;;;;;;19.95;76.53;96037.72;5088890;28;20040;-73
2023/06/20 02:33:58;;;;;;;5.18;4.25;;;;;;;19.98;76.58;96034.16;5089463;28;20141;-73
2023/06/20 02:36:28;;;;;;;6.68;4.50;;;;;;;20.00;76.84;96031.81;5088683;28;20040;-73
2023/06/20 02:38:57;;;;;;;5.45;4.10;;;;;;;19.97;77.00;96040.09;5088892;28;20526;-73
2023/06/20 02:41:24;;;;;;;6.00;4.10;;;;;;;19.86;77.13;96040.03;5088500;28;20044;-73
2023/06/20 02:43:51;;;;;;;6.05;4.07;;;;;;;19.86;76.99;96047.53;5088975;28;20040;-73
2023/06/20 02:46:23;;;;;;;12.68;5.47;;;;;;;19.70;78.19;96067.16;5088747;28;20275;-73
2023/06/20 02:48:59;;;;;;;7.90;5.63;;;;;;;19.36;79.20;96060.94;5088679;28;20083;-73
2023/06/20 02:51:34;;;;;;;7.93;5.40;;;;;;;19.25;79.32;96069.91;5088805;28;20047;-73
2023/06/20 02:54:08;;;;;;;8.75;5.22;;;;;;;19.17;80.31;96081.28;5089646;28;20052;-73
2023/06/20 02:56:37;;;;;;;6.72;5.00;;;;;;;18.91;81.72;96104.28;5092791;28;20063;-73
2023/06/20 02:59:07;;;;;;;7.85;6.40;;;;;;;18.72;83.07;96132.84;5092040;28;20511;-73
2023/06/20 03:01:37;;;;;;;8.88;6.30;;;;;;;18.72;83.83;96144.66;5092961;28;20064;-73
2023/06/20 03:04:07;;;;;;;9.32;5.78;;;;;;;18.73;84.75;96128.91;5092274;28;20522;-73
2023/06/20 03:06:37;;;;;;;6.97;5.35;;;;;;;18.56;86.02;96127.50;5092613;28;20048;-73
2023/06/20 03:09:05;;;;;;;6.40;5.28;;;;;;;18.65;86.04;96143.75;5092125;28;20044;-73
2023/06/20 03:11:32;;;;;;;6.47;5.43;;;;;;;18.72;85.57;96136.38;5092631;28;20048;-72
2023/06/20 03:14:00;;;;;;;8.02;4.93;;;;;;;18.93;84.60;96132.28;5092641;28;20044;-73
2023/06/20 03:16:26;;;;;;;7.40;5.45;;;;;;;18.84;84.82;96146.38;5091761;28;20040;-73
2023/06/20 03:18:53;;;;;;;9.95;5.63;;;;;;;18.81;85.23;96136.09;5092361;28;20040;-73
2023/06/20 03:21:22;;;;;;;12.20;5.70;;;;;;;18.79;85.34;96149.47;5092189;28;20040;-73
2023/06/20 03:23:48;;;;;;;11.50;5.05;;;;;;;18.81;85.21;96136.09;5092512;28;20032;-73
2023/06/20 03:26:15;;;;;;;8.00;6.18;;;;;;;18.71;85.57;96137.56;5091804;28;20055;-73
2023/06/20 03:28:41;;;;;;;8.80;6.00;;;;;;;18.75;85.85;96149.44;5095055;28;20059;-73
2023/06/20 03:31:08;;;;;;;10.75;6.00;;;;;;;18.77;85.42;96158.13;5105905;27;20044;-73
2023/06/20 03:33:34;;;;;;;8.68;5.38;;;;;;;18.77;85.72;96157.34;5091793;28;20507;-73
2023/06/20 03:36:01;;;;;;;10.07;5.70;;;;;;;18.72;86.00;96161.22;5090078;28;20040;-73
2023/06/20 03:38:29;;;;;;;9.88;5.35;;;;;;;18.57;87.32;96161.38;5108806;28;20040;-73
2023/06/20 03:40:55;;;;;;;8.95;5.43;;;;;;;18.77;86.11;96158.13;5112685;28;20044;-73
2023/06/20 03:43:21;;;;;;;8.82;6.03;;;;;;;18.61;86.55;96165.78;5095482;28;20526;-73
2023/06/20 03:45:48;;;;;;;10.82;6.40;;;;;;;18.55;86.87;96164.53;5084116;28;20047;-73
2023/06/20 03:48:14;;;;;;;10.70;6.25;;;;;;;18.55;86.89;96160.97;5091625;28;20047;-73
2023/06/20 03:50:41;;;;;;;7.95;5.85;;;;;;;18.50;86.89;96164.84;5091706;28;20066;-73
2023/06/20 03:53:07;;;;;;;10.63;6.30;;;;;;;18.51;86.43;96169.97;5091248;28;20123;-73
2023/06/20 03:55:35;;;;;;;7.82;5.57;;;;;;;18.58;85.54;96171.22;5092178;28;20399;-73
2023/06/20 03:58:02;;;;;;;7.68;5.20;;;;;;;18.80;85.34;96181.41;5091335;28;20039;-74
2023/06/20 04:00:28;;;;;;;8.77;5.65;;;;;;;18.71;84.90;96186.41;5091292;28;20043;-73
2023/06/20 04:02:54;;;;;;;9.77;6.05;;;;;;;18.69;84.45;96188.78;5091175;28;20447;-73
2023/06/20 04:05:22;;;;;;;8.13;5.65;;;;;;;18.76;84.06;96192.41;5091488;28;20471;-73
2023/06/20 04:07:48;;;;;;;8.80;5.22;;;;;;;18.86;83.15;96192.91;5091526;28;20044;-73
2023/06/20 04:10:15;;;;;;;7.97;5.43;;;;;;;18.93;82.71;96193.78;5090870;28;20051;-73
2023/06/20 04:12:43;;;;;;;10.45;5.50;;;;;;;18.93;82.50;96193.78;5091298;28;20044;-73
2023/06/20 04:15:11;;;;;;;7.22;5.30;;;;;;;18.86;81.64;96201.97;5090935;28;20463;-73
2023/06/20 04:17:39;;;;;;;7.50;5.80;;;;;;;18.91;82.27;96212.69;5091476;28;20050;-73
2023/06/20 04:20:11;;;;;;;6.82;5.25;;;;;;;19.00;81.39;96210.44;5090851;28;20075;-73
2023/06/20 04:22:40;;;;;;;7.07;5.10;;;;;;;19.01;80.67;96212.03;5091253;28;20040;-73
2023/06/20 04:25:08;;;;;;;8.93;5.22;;;;;;;18.99;80.70;96208.81;5091097;28;20071;-74
2023/06/20 04:27:34;;;;;;;7.45;5.47;;;;;;;18.90;80.71;96208.34;5091115;28;20040;-73
2023/06/20 04:30:03;;;;;;;7.22;5.20;;;;;;;18.95;81.02;96210.78;5090756;28;20047;-73
2023/06/20 04:32:30;;;;;;;7.28;5.00;;;;;;;19.09;80.14;96206.56;5076960;28;20037;-73
2023/06/20 04:34:56;;;;;;;7.68;5.50;;;;;;;18.95;80.54;96213.53;5090979;28;20492;-73
2023/06/20 04:37:23;;;;;;;7.72;5.60;;;;;;;18.90;80.81;96211.09;5090698;28;20507;-73
2023/06/20 04:39:49;;;;;;;7.25;5.70;;;;;;;19.04;80.57;96222.28;5084386;28;20044;-73
2023/06/20 04:42:16;;;;;;;7.50;5.40;;;;;;;18.98;80.08;96211.97;5090444;28;20047;-73
2023/06/20 04:44:44;;;;;;;6.75;5.18;;;;;;;18.98;80.44;96218.28;5091011;28;20067;-73
2023/06/20 04:47:13;;;;;;;7.72;5.38;;;;;;;18.96;80.42;96220.63;5097094;28;20039;-73
2023/06/20 04:49:40;;;;;;;6.38;4.75;;;;;;;19.09;80.88;96223.13;5102796;28;20075;-73
2023/06/20 04:52:08;;;;;;;7.25;5.13;;;;;;;19.10;80.00;96219.19;5104394;27;20499;-72
2023/06/20 04:54:34;;;;;;;9.60;5.13;;;;;;;19.25;79.84;96212.66;5093326;28;20047;-72
2023/06/20 04:57:02;;;;;;;8.73;5.82;;;;;;;19.22;79.39;96216.22;5090921;28;20066;-72
2023/06/20 04:59:36;;;;;;;8.38;4.90;;;;;;;19.18;79.31;96215.38;5099012;28;20092;-73
2023/06/20 05:02:05;;;;;;;7.38;5.13;;;;;;;19.30;79.25;96223.38;5092019;28;20040;-74
2023/06/20 05:04:32;;;;;;;7.03;5.40;;;;;;;19.22;79.09;96228.03;5092424;28;20040;-73
2023/06/20 05:07:01;;;;;;;8.13;5.20;;;;;;;19.28;79.18;96221.00;5092090;28;20055;-73
2023/06/20 05:09:28;;;;;;;6.60;5.03;;;;;;;19.33;78.69;96221.84;5091897;28;20052;-73
2023/06/20 05:11:55;;;;;;;7.63;5.25;;;;;;;19.30;78.92;96220.63;5104632;28;20047;-72
2023/06/20 05:14:21;;;;;;;6.30;4.93;;;;;;;19.39;78.76;96228.59;5089548;28;20054;-73
2023/06/20 05:16:47;;;;;;;7.10;4.32;;;;;;;19.55;78.47;96223.66;5091035;28;20055;-73
2023/06/20 05:19:14;;;;;;;7.78;5.00;;;;;;;19.48;77.94;96229.91;5106814;28;20055;-72
2023/06/20 05:21:42;;;;;;;7.47;5.03;;;;;;;19.52;77.87;96230.75;5100578;28;20123;-73
2023/06/20 05:24:09;;;;;;;7.85;5.10;;;;;;;19.41;78.41;96227.03;5097915;28;20068;-73
2023/06/20 05:26:35;;;;;;;6.68;5.20;;;;;;;19.35;78.48;96231.31;5097029;28;20115;-72
2023/06/20 05:29:03;;;;;;;7.07;4.90;;;;;;;19.23;78.83;96228.84;5095555;28;20043;-73
2023/06/20 05:31:29;;;;;;;8.77;5.32;;;;;;;19.33;78.79;96233.69;5095978;28;20063;-72
2023/06/20 05:33:56;;;;;;;7.68;4.88;;;;;;;19.45;78.78;96246.41;5098280;28;20048;-72
2023/06/20 05:36:22;;;;;;;7.85;4.63;;;;;;;19.48;78.44;96251.19;5094980;28;20040;-71
2023/06/20 05:38:50;;;;;;;6.18;4.90;;;;;;;19.49;78.85;96256.34;5100224;28;20044;-74
2023/06/20 05:41:17;;;;;;;9.52;5.00;;;;;;;19.67;78.46;96258.50;5093102;28;20415;-73
2023/06/20 05:43:44;;;;;;;7.13;5.30;;;;;;;19.59;78.65;96252.13;5092694;28;20047;-72
2023/06/20 05:46:11;;;;;;;7.18;5.45;;;;;;;19.72;78.44;96255.41;5091408;28;20048;-72
2023/06/20 05:48:37;;;;;;;8.25;5.40;;;;;;;19.65;78.85;96263.63;5091292;28;20074;-72
2023/06/20 05:51:04;;;;;;;6.93;5.30;;;;;;;19.76;77.95;96250.72;5090965;28;20040;-73
2023/06/20 05:53:30;;;;;;;7.95;4.88;;;;;;;19.84;77.77;96270.91;5091919;28;20048;-72
2023/06/20 05:55:58;;;;;;;8.60;5.25;;;;;;;19.79;78.40;96261.81;5095541;28;20593;-72
2023/06/20 05:58:25;;;;;;;7.72;4.85;;;;;;;19.92;78.51;96256.00;5099125;28;20059;-72
2023/06/20 06:00:51;;;;;;;8.00;4.93;;;;;;;19.97;77.67;96256.44;5090854;28;20044;-72
2023/06/20 06:03:19;;;;;;;6.72;4.63;;;;;;;20.05;76.87;96263.63;5091361;28;20068;-73
2023/06/20 06:05:45;;;;;;;8.50;5.10;;;;;;;20.11;76.21;96255.78;5092053;28;20040;-72
2023/06/20 06:08:12;;;;;;;8.68;5.10;;;;;;;20.09;75.78;96260.88;5091617;28;20040;-72
2023/06/20 06:10:39;;;;;;;7.55;4.82;;;;;;;20.24;76.81;96268.13;5089553;28;20047;-72
2023/06/20 06:13:06;;;;;;;6.93;5.00;;;;;;;20.34;75.57;96263.84;5088875;28;20036;-72
2023/06/20 06:15:33;;;;;;;8.90;5.07;;;;;;;20.48;75.26;96266.75;5089667;28;20048;-72
2023/06/20 06:18:00;;;;;;;7.38;5.20;;;;;;;20.57;73.86;96261.69;5089647;28;20567;-72
2023/06/20 06:20:29;;;;;;;7.40;5.03;;;;;;;20.55;73.93;96275.09;5088808;28;20109;-71
2023/06/20 06:22:55;;;;;;;8.30;5.03;;;;;;;20.66;74.97;96286.22;5089334;28;20040;-72
2023/06/20 06:25:22;;;;;;;8.60;4.40;;;;;;;20.61;74.91;96277.50;5089200;28;20491;-72
2023/06/20 06:27:49;;;;;;;6.88;4.68;;;;;;;20.67;74.47;96270.41;5089410;28;20044;-72
2023/06/20 06:30:17;;;;;;;9.60;5.10;;;;;;;20.84;74.50;96280.81;5096933;28;20047;-72
2023/06/20 06:32:47;;;;;;;5.72;4.78;;;;;;;20.89;73.73;96277.69;5099987;28;20047;-72
2023/06/20 06:35:16;;;;;;;5.68;4.75;;;;;;;21.02;73.31;96278.16;5113316;28;20051;-72
2023/06/20 06:37:42;;;;;;;5.50;4.50;;;;;;;21.18;73.53;96288.91;5097743;28;20040;-72
2023/06/20 06:40:10;;;;;;;6.57;4.50;;;;;;;21.36;72.89;96290.59;5092775;28;20411;-72
2023/06/20 06:42:37;;;;;;;5.90;4.15;;;;;;;21.52;71.65;96287.50;5093201;28;20055;-72
2023/06/20 06:45:04;;;;;;;6.63;4.55;;;;;;;21.63;70.36;96281.97;5104368;28;20078;-72
2023/06/20 06:47:32;;;;;;;4.97;3.80;;;;;;;21.78;70.42;96286.38;5113101;27;20042;-72
2023/06/20 06:49:58;;;;;;;5.65;3.35;;;;;;;21.80;69.30;96278.44;5091760;28;20054;-72
2023/06/20 06:52:25;;;;;;;9.15;4.07;;;;;;;21.71;68.10;96264.19;5092324;28;20060;-72
2023/06/20 06:54:51;;;;;;;5.50;3.60;;;;;;;21.73;68.18;96269.34;5111290;28;20126;-72
2023/06/20 06:57:18;;;;;;;5.70;4.05;;;;;;;21.80;68.17;96269.34;5108917;28;20055;-72
2023/06/20 06:59:44;;;;;;;5.65;3.78;;;;;;;21.82;66.90;96267.78;5091716;28;20048;-72
2023/06/20 07:02:11;;;;;;;4.63;3.78;;;;;;;22.01;68.66;96269.38;5091427;28;20071;-72
2023/06/20 07:04:38;;;;;;;5.50;4.00;;;;;;;21.99;66.08;96274.53;5092642;28;20044;-72
2023/06/20 07:07:06;;;;;;;6.45;3.47;;;;;;;22.12;67.76;96264.66;5091401;28;20039;-73
2023/06/20 07:09:32;;;;;;;5.18;3.45;;;;;;;22.28;67.31;96274.56;5092903;28;20044;-72
2023/06/20 07:11:59;;;;;;;4.78;2.83;;;;;;;22.16;64.85;96263.88;5092703;28;20051;-72
2023/06/20 07:14:26;;;;;;;5.45;3.00;;;;;;;22.28;64.70;96264.25;5092388;28;20051;-72
2023/06/20 07:16:52;;;;;;;5.55;3.30;;;;;;;22.45;64.68;96259.94;5092197;28;20121;-72
2023/06/20 07:19:19;;;;;;;4.63;2.97;;;;;;;22.59;63.72;96268.22;5091961;28;20051;-72
2023/06/20 07:21:47;;;;;;;5.75;3.00;;;;;;;22.73;63.36;96266.63;5092064;28;20040;-73
2023/06/20 07:24:13;;;;;;;4.97;2.85;;;;;;;22.84;62.45;96275.72;5092253;28;20055;-73
2023/06/20 07:26:40;;;;;;;4.50;2.60;;;;;;;22.79;62.37;96273.34;5092614;28;20043;-73
2023/06/20 07:29:06;;;;;;;5.70;2.90;;;;;;;22.82;62.11;96267.00;5091486;28;20056;-72
2023/06/20 07:31:33;;;;;;;3.45;2.45;;;;;;;22.86;61.70;96263.00;5092068;28;20040;-74
2023/06/20 07:33:59;;;;;;;5.18;3.10;;;;;;;22.87;62.34;96269.38;5092302;28;20059;-75
2023/06/20 07:36:26;;;;;;;4.70;2.55;;;;;;;22.61;60.39;96260.31;5091977;28;20052;-74
2023/06/20 07:38:53;;;;;;;4.13;2.47;;;;;;;22.51;60.53;96263.88;5093034;28;20036;-74
2023/06/20 07:41:20;;;;;;;3.47;2.35;;;;;;;22.53;61.67;96255.94;5094758;28;20067;-75
2023/06/20 07:43:46;;;;;;;5.70;2.72;;;;;;;22.66;62.05;96248.00;5106201;28;20043;-75
2023/06/20 07:46:13;;;;;;;3.42;2.75;;;;;;;22.65;62.08;96249.97;5103614;28;20051;-75
2023/06/20 07:48:39;;;;;;;4.07;2.63;;;;;;;22.67;61.80;96250.38;5094722;28;20048;-75
2023/06/20 07:51:06;;;;;;;2.75;2.30;;;;;;;22.69;61.20;96257.50;5095696;28;20071;-75
2023/06/20 07:53:32;;;;;;;3.60;2.45;;;;;;;22.66;60.97;96259.91;5095721;28;20492;-74
2023/06/20 07:56:00;;;;;;;3.72;2.58;;;;;;;22.54;59.99;96243.63;5095771;28;20040;-75
2023/06/20 07:58:27;;;;;;;4.25;2.20;;;;;;;22.69;60.65;96230.53;5096431;28;20740;-74
2023/06/20 08:00:56;;;;;;;3.28;2.10;;;;;;;22.53;60.70;96228.19;5096789;28;20048;-74
2023/06/20 08:03:24;;;;;;;3.83;2.08;;;;;;;22.70;61.16;96234.09;5096145;28;20097;-72
2023/06/20 08:05:51;;;;;;;7.75;2.40;;;;;;;22.71;60.38;96239.28;5096991;28;20130;-75
2023/06/20 08:08:17;;;;;;;5.43;2.30;;;;;;;22.62;60.14;96236.91;5094405;28;20048;-72
2023/06/20 08:10:44;;;;;;;4.57;2.30;;;;;;;22.65;60.35;96230.53;5091636;28;20051;-75
2023/06/20 08:13:12;;;;;;;3.17;2.30;;;;;;;22.69;60.71;96224.19;5090950;28;20048;-72
2023/06/20 08:15:38;;;;;;;2.85;2.08;;;;;;;22.77;60.11;96225.78;5091444;28;20562;-74
2023/06/20 08:18:05;;;;;;;3.63;2.00;;;;;;;22.80;61.07;96211.06;5091176;28;20048;-75
2023/06/20 08:20:31;;;;;;;9.10;2.50;;;;;;;22.72;61.49;96213.09;5091608;28;20051;-74
2023/06/20 08:22:58;;;;;;;6.78;2.80;;;;;;;22.80;59.79;96213.84;5096153;28;20056;-74
2023/06/20 08:25:24;;;;;;;4.78;2.30;;;;;;;23.00;60.20;96215.00;5091282;28;20043;-72
2023/06/20 08:27:51;;;;;;;4.93;2.47;;;;;;;23.17;59.91;96216.13;5092256;28;20051;-74
2023/06/20 08:30:19;;;;;;;7.70;2.90;;;;;;;23.15;58.71;96216.53;5090695;28;20039;-74
2023/06/20 08:32:45;;;;;;;4.20;2.40;;;;;;;23.14;58.38;96212.19;5089261;28;20463;-74
2023/06/20 08:35:12;;;;;;;3.45;2.50;;;;;;;23.33;58.97;96213.66;5090859;28;20174;-72
2023/06/20 08:37:38;;;;;;;2.38;2.17;;;;;;;23.46;58.98;96211.22;5091069;28;20040;-75
2023/06/20 08:40:08;;;;;;;4.90;2.30;;;;;;;23.72;59.28;96211.91;5081578;28;20036;-74
2023/06/20 08:42:35;;;;;;;4.07;2.40;;;;;;;23.93;57.93;96211.75;5090369;28;20044;-75
2023/06/20 08:45:02;;;;;;;5.20;2.35;;;;;;;24.16;56.43;96220.28;5088894;28;20036;-75
2023/06/20 08:47:30;;;;;;;4.28;2.28;;;;;;;24.45;56.46;96220.09;5090122;28;20044;-73
2023/06/20 08:49:56;;;;;;;3.85;2.13;;;;;;;24.67;55.37;96221.44;5090679;28;20054;-72
2023/06/20 08:52:29;;;;;;;4.40;2.38;;;;;;;24.85;54.52;96215.72;5089236;28;20040;-73
2023/06/20 08:54:56;;;;;;;3.88;2.20;;;;;;;25.16;53.56;96218.53;5091576;28;20039;-73
2023/06/20 08:57:23;;;;;;;3.25;1.80;;;;;;;25.44;50.79;96212.63;5098959;27;20047;-73
2023/06/20 08:59:50;;;;;;;4.20;1.88;;;;;;;25.73;49.25;96213.00;5090255;28;20051;-73
2023/06/20 09:02:16;;;;;;;2.47;1.50;;;;;;;25.90;47.26;96199.25;5090501;28;20651;-73
2023/06/20 09:04:44;;;;;;;1.88;1.55;;;;;;;26.09;47.11;96204.13;5089571;28;20048;-73
2023/06/20 09:07:18;;;;;;;4.57;2.00;;;;;;;26.17;47.15;96191.63;5089327;28;20044;-72
2023/06/20 09:09:44;;;;;;;3.83;1.52;;;;;;;26.44;46.00;96193.59;5089732;28;20123;-73
2023/06/20 09:12:11;;;;;;;4.70;1.70;;;;;;;26.63;47.23;96192.88;5089953;28;20055;-73
2023/06/20 09:14:38;;;;;;;3.75;1.60;;;;;;;26.75;45.37;96197.81;5090461;28;20071;-73
2023/06/20 09:17:05;;;;;;;4.13;1.52;;;;;;;26.95;44.62;96194.25;5089772;28;20036;-74
2023/06/20 09:19:42;;;;;;;3.25;1.65;;;;;;;27.17;44.25;96189.81;5090198;28;20051;-72
2023/06/20 09:22:12;;;;;;;2.28;1.50;;;;;;;26.99;42.00;96190.16;5089641;28;20118;-74
2023/06/20 09:24:42;;;;;;;1.75;1.40;;;;;;;26.85;44.21;96190.44;5090211;28;20101;-75
2023/06/20 09:27:09;;;;;;;2.50;1.35;;;;;;;26.86;43.71;96192.00;5089385;28;20047;-75
2023/06/20 09:29:49;;;;;;;1.52;1.30;;;;;;;26.89;44.06;96191.16;5090085;28;20046;-75
2023/06/20 09:32:20;;;;;;;3.13;1.80;;;;;;;26.99;43.20;96186.56;5090779;28;20044;-75
2023/06/20 09:34:46;;;;;;;2.33;1.40;;;;;;;26.76;41.81;96190.22;5103463;28;20419;-74
2023/06/20 09:37:17;;;;;;;2.08;1.63;;;;;;;26.67;43.59;96185.19;5094810;28;20047;-74
2023/06/20 09:39:44;;;;;;;3.53;1.55;;;;;;;26.86;45.51;96180.06;5089892;28;20127;-75
2023/06/20 09:42:12;;;;;;;3.63;1.63;;;;;;;27.02;44.17;96182.91;5089410;28;20056;-75
2023/06/20 09:44:40;;;;;;;2.47;1.60;;;;;;;26.87;42.80;96176.81;5089391;28;20051;-75
2023/06/20 09:47:07;;;;;;;3.85;2.10;;;;;;;26.95;42.91;96171.91;5089294;28;20084;-75
2023/06/20 09:49:36;;;;;;;2.70;1.80;;;;;;;27.12;43.07;96167.97;5089206;28;20050;-75
2023/06/20 09:52:05;;;;;;;2.35;1.70;;;;;;;27.21;42.27;96168.19;5087959;28;20036;-75
2023/06/20 09:54:44;;;;;;;3.55;2.03;;;;;;;27.24;42.17;96172.09;5088366;28;20125;-75
2023/06/20 09:57:15;;;;;;;4.50;1.77;;;;;;;27.42;43.06;96160.56;5088584;28;20135;-75
2023/06/20 09:59:43;;;;;;;3.63;1.97;;;;;;;27.68;42.02;96156.75;5088707;28;20067;-75
2023/06/20 10:02:10;;;;;;;3.10;1.65;;;;;;;27.92;42.09;96145.44;5081115;28;20067;-75
2023/06/20 10:04:42;;;;;;;3.42;1.90;;;;;;;27.87;40.54;96151.53;5089112;28;20087;-75
2023/06/20 10:07:10;;;;;;;4.05;1.80;;;;;;;27.81;40.20;96138.06;5105069;28;20048;-75
2023/06/20 10:09:39;;;;;;;29.20;3.15;;;;;;;28.05;42.78;96143.50;5109980;28;20043;-75
2023/06/20 10:12:08;;;;;;;2.60;1.40;;;;;;;27.96;40.24;96144.13;5087487;28;20059;-75
2023/06/20 10:14:35;;;;;;;2.58;1.45;;;;;;;27.99;41.25;96143.25;5089286;28;20488;-75
2023/06/20 10:17:06;;;;;;;3.92;1.73;;;;;;;27.99;40.69;96148.84;5088934;28;20040;-75
2023/06/20 10:19:47;;;;;;;2.25;1.45;;;;;;;28.09;40.37;96141.41;5096718;28;20047;-75
2023/06/20 10:22:14;;;;;;;4.07;1.88;;;;;;;28.10;41.10;96145.78;5081278;28;20479;-75
2023/06/20 10:24:42;;;;;;;3.72;2.28;;;;;;;28.16;38.19;96146.03;5106225;28;20051;-75
2023/06/20 10:27:09;;;;;;;2.10;1.40;;;;;;;28.17;38.40;96142.78;5088818;28;20048;-75
2023/06/20 10:29:40;;;;;;;2.65;1.60;;;;;;;28.39;39.61;96147.88;5089706;28;20047;-75
2023/06/20 10:32:08;;;;;;;3.03;1.65;;;;;;;28.36;37.66;96143.16;5088582;28;20056;-75
2023/06/20 10:34:35;;;;;;;2.65;1.38;;;;;;;28.63;37.29;96135.22;5089370;28;20115;-75
2023/06/20 10:37:34;;;;;;;3.78;1.50;;;;;;;28.92;37.36;96134.41;5088436;28;20126;-76
2023/06/20 10:40:04;;;;;;;5.55;1.45;;;;;;;29.10;35.85;96134.72;5089066;28;20504;-75
2023/06/20 10:42:36;;;;;;;3.00;1.38;;;;;;;29.01;36.33;96132.56;5089125;28;20503;-75
2023/06/20 10:45:22;;;;;;;3.30;1.40;;;;;;;28.82;35.67;96125.88;5088714;28;20051;-76
2023/06/20 10:47:50;;;;;;;2.55;1.42;;;;;;;28.89;36.63;96119.28;5088591;28;20040;-75
2023/06/20 10:50:17;;;;;;;2.28;1.45;;;;;;;29.13;36.97;96133.84;5088024;28;20040;-75
2023/06/20 10:52:43;;;;;;;5.95;1.80;;;;;;;29.24;34.87;96125.91;5088458;28;20051;-75
2023/06/20 10:55:14;;;;;;;4.68;1.65;;;;;;;28.98;35.37;96122.25;5088337;28;20044;-75
2023/06/20 10:57:44;;;;;;;9.25;2.35;;;;;;;29.01;37.52;96124.16;5088812;28;20052;-75
2023/06/20 11:00:14;;;;;;;2.80;1.60;;;;;;;29.14;35.34;96112.19;5088225;28;20147;-75
2023/06/20 11:02:41;;;;;;;5.70;1.98;;;;;;;29.23;37.35;96106.69;5089075;28;20518;-75
2023/06/20 11:05:09;;;;;;;3.72;1.88;;;;;;;29.20;36.95;96105.59;5088391;28;20048;-75
2023/06/20 11:07:35;;;;;;;10.77;3.58;;;;;;;29.43;37.87;96100.88;5088440;28;20040;-75
2023/06/20 11:10:16;;;;;;;3.35;1.85;;;;;;;29.49;36.48;96093.47;5088077;28;20040;-76
2023/06/20 11:12:42;;;;;;;4.22;1.88;;;;;;;29.69;36.13;96094.06;5088714;28;20050;-74
2023/06/20 11:15:28;;;;;;;2.40;1.80;;;;;;;29.62;34.61;96097.88;5088658;28;20368;-74
2023/06/20 11:17:55;;;;;;;3.47;1.70;;;;;;;29.56;35.62;96084.88;5091443;28;20551;-75
2023/06/20 11:20:24;;;;;;;9.13;2.85;;;;;;;29.40;34.57;96096.19;5091900;28;20445;-74
2023/06/20 11:22:53;;;;;;;88.80;10.68;;;;;;;29.30;37.97;96092.47;5092212;28;20040;-74
2023/06/20 11:25:29;;;;;;;27.67;4.32;;;;;;;29.31;36.71;96094.81;5091833;28;20051;-74
2023/06/20 11:27:56;;;;;;;4.60;2.10;;;;;;;29.54;37.60;96090.13;5091753;28;20036;-74
2023/06/20 11:30:27;;;;;;;5.40;2.17;;;;;;;29.64;36.28;96077.78;5091629;28;20097;-74
2023/06/20 11:33:02;;;;;;;3.80;1.83;;;;;;;29.63;34.55;96076.22;5091392;28;20048;-75
2023/06/20 11:35:49;;;;;;;4.00;1.73;;;;;;;29.72;34.95;96081.94;5091947;28;20040;-75
2023/06/20 11:38:19;;;;;;;4.72;2.20;;;;;;;29.79;34.91;96087.31;5091793;28;20054;-75
2023/06/20 11:40:50;;;;;;;4.30;1.95;;;;;;;29.90;35.33;96078.53;5091987;28;20040;-74